Fola, West Virginia
Current Conditions -  °F | °C
As of 6:54 AM on Sunday 21 Dec 2014 (Local Time) from KCRW Reporting Station
Clear Clear  
Wind Chill: 28°   Ceiling: Unl
Heat Index: 28°   Visibility: 10mi
Dew Point: 24°   Wind: 0mph
Humidity: 85%   Direction: NA
Pressure: 30.3"   Gusts: NA
Location:  38.3787°N, 81.1092°W
Report Text: KCRW 211154Z 00000KT 10SM CLR M02/M04 A3030 RMK AO2 SLP269 T10221044 10006 21022 53008
Loading
Personal Weather Stations






























Interactive Weather Map New forecast layout! Learn more

10-Day Weather Forecast

Advertisements
Track Severe Weather on mobile